createdAt,value
2022-10-09T00:01:28.752Z,3.20
2022-10-09T00:03:57.580Z,3.25
2022-10-09T00:06:28.640Z,3.22
2022-10-09T00:08:56.282Z,3.22
2022-10-09T00:11:30.450Z,3.20
2022-10-09T00:13:58.233Z,2.90
2022-10-09T00:16:26.294Z,3.60
2022-10-09T00:18:54.843Z,3.33
2022-10-09T00:21:26.201Z,2.90
2022-10-09T00:23:58.163Z,3.33
2022-10-09T00:26:26.821Z,3.67
2022-10-09T00:28:55.224Z,3.30
2022-10-09T00:31:23.313Z,3.20
2022-10-09T00:33:50.465Z,3.10
2022-10-09T00:36:24.459Z,3.10
2022-10-09T00:38:53.334Z,3.10
2022-10-09T00:41:25.810Z,2.88
2022-10-09T00:43:59.910Z,3.13
2022-10-09T00:46:48.267Z,3.17
2022-10-09T00:49:27.822Z,3.47
2022-10-09T00:51:58.910Z,3.33
2022-10-09T00:54:30.677Z,3.20
2022-10-09T00:56:57.857Z,3.95
2022-10-09T00:59:26.500Z,3.13
2022-10-09T01:01:54.181Z,3.75
2022-10-09T01:04:21.287Z,4.15
2022-10-09T01:07:38.896Z,3.83
2022-10-09T01:10:41.885Z,3.38
2022-10-09T01:13:28.392Z,3.10
2022-10-09T01:16:27.213Z,3.13
2022-10-09T01:19:45.799Z,4.80
2022-10-09T01:23:02.866Z,3.38
2022-10-09T01:25:44.827Z,4.70
2022-10-09T01:28:14.521Z,3.85
2022-10-09T01:30:42.642Z,3.90
2022-10-09T01:33:11.260Z,3.95
2022-10-09T01:35:40.869Z,3.75
2022-10-09T01:38:08.550Z,3.47
2022-10-09T01:40:37.040Z,3.45
2022-10-09T01:43:05.360Z,3.83
2022-10-09T01:45:42.256Z,3.70
2022-10-09T01:48:18.036Z,3.28
2022-10-09T01:50:52.751Z,3.60
2022-10-09T01:53:21.621Z,3.35
2022-10-09T01:56:15.098Z,3.72
2022-10-09T02:01:27.189Z,3.92
2022-10-09T02:03:58.791Z,4.00
2022-10-09T02:06:28.803Z,3.67
2022-10-09T02:08:56.353Z,3.40
2022-10-09T02:11:29.418Z,3.20
2022-10-09T02:16:37.539Z,3.38
2022-10-09T02:19:19.845Z,3.13
2022-10-09T02:22:01.361Z,3.95
2022-10-09T02:24:29.604Z,3.95
2022-10-09T02:26:58.219Z,3.38
2022-10-09T02:29:26.108Z,3.67
2022-10-09T02:31:53.199Z,3.67
2022-10-09T02:34:21.234Z,3.42
2022-10-09T02:36:49.909Z,3.50
2022-10-09T02:39:17.728Z,3.17
2022-10-09T02:41:44.670Z,3.20
2022-10-09T02:44:14.688Z,3.65
2022-10-09T02:46:41.819Z,3.97
2022-10-09T02:49:08.834Z,3.95
2022-10-09T02:51:35.917Z,3.60
2022-10-09T02:54:03.170Z,3.50
2022-10-09T02:56:30.520Z,3.70
2022-10-09T02:58:57.762Z,3.38
2022-10-09T03:01:25.053Z,3.33
2022-10-09T03:03:52.205Z,3.13
2022-10-09T03:06:24.115Z,3.30
2022-10-09T03:08:53.593Z,3.55
2022-10-09T03:11:23.332Z,3.65
2022-10-09T03:13:50.978Z,3.60
2022-10-09T03:16:24.437Z,3.55
2022-10-09T03:18:52.871Z,3.60
2022-10-09T03:21:26.787Z,3.15
2022-10-09T03:23:54.770Z,3.30
2022-10-09T03:26:25.819Z,3.50
2022-10-09T03:28:54.837Z,3.33
2022-10-09T03:34:12.972Z,3.60
2022-10-09T03:36:40.308Z,3.70
2022-10-09T03:39:07.308Z,3.80
2022-10-09T03:41:34.207Z,3.80
2022-10-09T03:44:01.179Z,3.47
2022-10-09T03:46:28.204Z,3.35
2022-10-09T03:48:55.361Z,3.58
2022-10-09T03:51:22.270Z,3.60
2022-10-09T03:53:50.018Z,3.22
2022-10-09T03:56:16.972Z,3.63
2022-10-09T03:58:43.885Z,3.95
2022-10-09T04:01:10.858Z,4.05
2022-10-09T04:03:37.881Z,3.80
2022-10-09T04:06:05.164Z,3.28
2022-10-09T04:08:32.083Z,3.97
2022-10-09T04:11:00.548Z,4.57
2022-10-09T04:13:27.821Z,4.47
2022-10-09T04:15:56.140Z,4.13
2022-10-09T04:18:24.571Z,4.35
2022-10-09T04:20:56.468Z,4.53
2022-10-09T04:23:27.036Z,4.10
2022-10-09T04:25:56.707Z,4.43
2022-10-09T04:28:24.212Z,4.00
2022-10-09T04:30:51.523Z,3.80
2022-10-09T04:33:19.216Z,4.07
2022-10-09T04:35:50.712Z,4.28
2022-10-09T04:38:17.744Z,3.90
2022-10-09T04:40:44.748Z,4.80
2022-10-09T04:43:11.612Z,4.13
2022-10-09T04:45:41.829Z,4.32
2022-10-09T04:48:08.755Z,3.97
2022-10-09T04:50:39.632Z,3.90
2022-10-09T04:53:06.552Z,3.67
2022-10-09T04:55:33.485Z,3.40
2022-10-09T04:58:00.351Z,3.38
2022-10-09T05:00:27.243Z,3.40
2022-10-09T05:02:54.141Z,4.05
2022-10-09T05:05:21.034Z,4.75
2022-10-09T05:07:47.920Z,4.05
2022-10-09T05:10:15.026Z,4.13
2022-10-09T05:12:42.047Z,4.60
2022-10-09T05:15:09.553Z,3.78
2022-10-09T05:17:36.560Z,7.00
2022-10-09T05:20:03.782Z,4.38
2022-10-09T05:22:30.702Z,4.45
2022-10-09T05:24:57.582Z,4.32
2022-10-09T05:27:24.585Z,4.20
2022-10-09T05:29:51.462Z,4.45
2022-10-09T05:32:18.382Z,4.20
2022-10-09T05:34:45.296Z,3.70
2022-10-09T05:37:12.257Z,3.60
2022-10-09T05:39:39.547Z,3.92
2022-10-09T05:42:06.500Z,4.07
2022-10-09T05:44:33.394Z,3.60
2022-10-09T05:47:00.306Z,3.90
2022-10-09T05:49:27.198Z,3.75
2022-10-09T05:51:55.876Z,3.75
2022-10-09T05:54:22.910Z,4.50
2022-10-09T05:56:49.855Z,3.45
2022-10-09T05:59:21.895Z,3.13
2022-10-09T06:01:51.616Z,3.50
2022-10-09T06:04:24.608Z,3.45
2022-10-09T06:06:52.058Z,3.45
2022-10-09T06:09:25.471Z,3.70
2022-10-09T06:11:54.711Z,3.58
2022-10-09T06:14:22.614Z,3.70
2022-10-09T06:16:50.295Z,3.92
2022-10-09T06:19:19.307Z,3.50
2022-10-09T06:21:47.618Z,3.28
2022-10-09T06:24:27.372Z,3.33
2022-10-09T06:26:56.966Z,3.83
2022-10-09T06:29:23.982Z,4.05
2022-10-09T06:31:50.885Z,3.80
2022-10-09T06:34:19.034Z,3.90
2022-10-09T06:36:45.911Z,3.63
2022-10-09T06:39:13.150Z,3.40
2022-10-09T06:41:40.339Z,3.50
2022-10-09T06:44:16.404Z,3.00
2022-10-09T06:46:48.445Z,2.90
2022-10-09T06:49:15.387Z,3.20
2022-10-09T06:51:42.350Z,3.08
2022-10-09T06:54:17.250Z,3.35
2022-10-09T06:56:44.659Z,2.97
2022-10-09T06:59:12.507Z,3.00
2022-10-09T07:01:39.645Z,3.08
2022-10-09T07:04:17.664Z,2.80
2022-10-09T07:06:47.810Z,3.30
2022-10-09T07:09:16.395Z,2.55
2022-10-09T07:11:49.002Z,3.08
2022-10-09T07:14:16.991Z,3.00
2022-10-09T07:16:47.122Z,3.17
2022-10-09T07:19:17.486Z,3.03
2022-10-09T07:21:48.327Z,3.38
2022-10-09T07:24:16.308Z,2.58
2022-10-09T07:26:46.216Z,2.85
2022-10-09T07:29:16.480Z,2.35
2022-10-09T07:31:44.119Z,3.58
2022-10-09T07:34:11.387Z,2.45
2022-10-09T07:36:38.352Z,2.05
2022-10-09T07:39:05.843Z,2.67
2022-10-09T07:41:33.336Z,2.10
2022-10-09T07:44:00.402Z,1.92
2022-10-09T07:46:33.268Z,2.38
2022-10-09T07:49:01.863Z,2.30
2022-10-09T07:51:30.452Z,2.08
2022-10-09T07:53:59.948Z,2.60
2022-10-09T07:56:34.248Z,2.55
2022-10-09T07:59:07.974Z,2.33
2022-10-09T08:01:36.173Z,2.40
2022-10-09T08:04:04.129Z,2.30
2022-10-09T08:06:31.918Z,2.42
2022-10-09T08:09:02.264Z,2.22
2022-10-09T08:11:30.239Z,2.00
2022-10-09T08:13:57.721Z,2.00
2022-10-09T08:16:26.620Z,2.17
2022-10-09T08:18:59.514Z,2.20
2022-10-09T08:21:28.461Z,3.25
2022-10-09T08:23:58.653Z,2.67
2022-10-09T08:26:29.052Z,2.00
2022-10-09T08:29:02.596Z,1.92
2022-10-09T08:31:31.886Z,2.10
2022-10-09T08:34:01.782Z,2.15
2022-10-09T08:36:29.918Z,1.60
2022-10-09T08:38:57.110Z,1.90
2022-10-09T08:41:33.220Z,2.30
2022-10-09T08:44:25.207Z,2.58
2022-10-09T08:47:20.350Z,2.20
2022-10-09T08:50:11.126Z,2.10
2022-10-09T08:52:56.357Z,1.92
2022-10-09T08:55:32.818Z,1.77
2022-10-09T08:58:06.924Z,1.60
2022-10-09T09:00:49.958Z,1.60
2022-10-09T09:03:43.457Z,1.70
2022-10-09T09:06:38.078Z,1.98
2022-10-09T09:09:38.582Z,1.73
2022-10-09T09:12:21.989Z,1.70
2022-10-09T09:18:37.629Z,1.88
2022-10-09T09:21:35.254Z,1.52
2022-10-09T09:24:13.776Z,1.38
2022-10-09T09:26:43.898Z,1.80
2022-10-09T09:29:15.224Z,1.70
2022-10-09T09:31:46.242Z,1.60
2022-10-09T09:34:23.544Z,1.40
2022-10-09T09:36:56.992Z,1.95
2022-10-09T09:40:24.234Z,1.80
2022-10-09T09:42:21.263Z,1.80
2022-10-09T09:45:22.259Z,1.90
2022-10-09T09:47:57.505Z,2.00
2022-10-09T09:50:48.566Z,1.80
2022-10-09T09:53:32.526Z,1.77
2022-10-09T09:56:00.051Z,1.40
2022-10-09T09:58:55.208Z,1.25
2022-10-09T10:01:25.905Z,1.95
2022-10-09T10:03:56.754Z,1.42
2022-10-09T10:06:31.792Z,1.40
2022-10-09T10:09:12.910Z,1.20
2022-10-09T10:12:01.611Z,1.42
2022-10-09T10:14:29.589Z,2.42
2022-10-09T10:17:00.030Z,2.65
2022-10-09T10:19:36.238Z,1.30
2022-10-09T10:22:23.633Z,1.55
2022-10-09T10:24:56.788Z,1.63
2022-10-09T10:30:10.872Z,1.27
2022-10-09T10:33:16.839Z,1.60
2022-10-09T10:35:44.920Z,1.33
2022-10-09T10:38:19.532Z,1.42
2022-10-09T10:40:52.743Z,1.08
2022-10-09T10:43:45.248Z,1.67
2022-10-09T10:46:36.933Z,0.93
2022-10-09T10:49:04.661Z,1.40
2022-10-09T10:52:08.823Z,1.30
2022-10-09T10:55:22.184Z,1.10
2022-10-09T10:58:32.416Z,1.20
2022-10-09T11:01:32.083Z,1.73
2022-10-09T11:04:22.785Z,1.20
2022-10-09T11:07:07.752Z,2.03
2022-10-09T11:10:19.110Z,1.08
2022-10-09T11:13:06.478Z,0.90
2022-10-09T11:15:57.467Z,1.38
2022-10-09T11:18:33.303Z,1.23
2022-10-09T11:21:13.148Z,1.10
2022-10-09T11:24:13.800Z,1.38
2022-10-09T11:26:52.842Z,1.17
2022-10-09T11:29:50.218Z,1.00
2022-10-09T11:32:27.285Z,1.00
2022-10-09T11:35:12.492Z,1.10
2022-10-09T11:37:43.822Z,1.60
2022-10-09T11:40:31.116Z,1.55
2022-10-09T11:43:25.202Z,1.55
2022-10-09T11:46:11.418Z,1.10
2022-10-09T11:48:54.768Z,0.63
2022-10-09T11:53:53.595Z,1.77
2022-10-09T11:56:32.528Z,1.05
2022-10-09T11:59:30.183Z,0.90
2022-10-09T12:02:23.784Z,0.90
2022-10-09T12:10:34.684Z,1.00
2022-10-09T12:13:06.504Z,1.70
2022-10-09T12:15:59.754Z,1.25
2022-10-09T12:18:46.862Z,1.20
2022-10-09T12:21:31.881Z,1.00
2022-10-09T12:24:00.120Z,1.50
2022-10-09T12:26:30.786Z,1.65
2022-10-09T12:29:04.809Z,1.17
2022-10-09T12:31:39.910Z,1.25
2022-10-09T12:34:24.088Z,1.00
2022-10-09T12:36:51.114Z,1.10
2022-10-09T12:39:24.348Z,1.75
2022-10-09T12:41:56.970Z,1.38
2022-10-09T12:44:35.775Z,1.85
2022-10-09T12:47:19.064Z,1.50
2022-10-09T12:49:59.524Z,1.30
2022-10-09T12:52:26.835Z,0.77
2022-10-09T12:54:54.082Z,1.52
2022-10-09T12:57:25.395Z,1.15
2022-10-09T12:59:55.580Z,1.50
2022-10-09T13:02:22.920Z,1.60
2022-10-09T13:05:00.564Z,0.63
2022-10-09T13:07:30.270Z,1.40
2022-10-09T13:10:20.284Z,3.08
2022-10-09T13:12:55.630Z,2.20
2022-10-09T13:15:37.136Z,1.55
2022-10-09T13:18:24.383Z,1.25
2022-10-09T13:21:22.330Z,1.35
2022-10-09T13:23:49.407Z,1.80
2022-10-09T13:26:26.868Z,1.20
2022-10-09T13:28:56.737Z,1.27
2022-10-09T13:31:24.050Z,1.42
2022-10-09T13:33:51.039Z,1.40
2022-10-09T13:36:19.932Z,1.08
2022-10-09T13:38:47.924Z,1.15
2022-10-09T13:41:20.849Z,1.60
2022-10-09T13:43:49.407Z,1.10
2022-10-09T13:46:16.577Z,1.30
2022-10-09T13:48:43.591Z,1.10
2022-10-09T13:51:11.394Z,1.05
2022-10-09T13:53:38.527Z,1.60
2022-10-09T13:56:07.768Z,1.67
2022-10-09T13:58:35.104Z,1.65
2022-10-09T14:01:02.415Z,1.65
2022-10-09T14:03:29.523Z,1.20
2022-10-09T14:06:03.013Z,1.65
2022-10-09T14:08:30.696Z,1.60
2022-10-09T14:11:00.661Z,1.30
2022-10-09T14:13:28.791Z,1.52
2022-10-09T14:15:56.728Z,1.27
2022-10-09T14:18:23.842Z,1.67
2022-10-09T14:20:50.894Z,1.98
2022-10-09T14:23:17.806Z,1.70
2022-10-09T14:25:44.711Z,1.50
2022-10-09T14:28:11.642Z,1.52
2022-10-09T14:30:43.689Z,1.70
2022-10-09T14:33:12.413Z,1.80
2022-10-09T14:35:39.662Z,1.83
2022-10-09T14:38:06.588Z,1.70
2022-10-09T14:40:33.494Z,1.70
2022-10-09T14:43:00.821Z,1.98
2022-10-09T14:45:28.981Z,2.00
2022-10-09T14:47:56.791Z,1.80
2022-10-09T14:50:23.704Z,1.83
2022-10-09T14:52:50.921Z,1.63
2022-10-09T14:55:18.093Z,2.00
2022-10-09T14:57:45.322Z,1.38
2022-10-09T15:00:13.168Z,2.20
2022-10-09T15:02:40.254Z,1.85
2022-10-09T15:05:08.518Z,1.55
2022-10-09T15:07:35.586Z,1.48
2022-10-09T15:10:02.548Z,1.40
2022-10-09T15:12:29.455Z,1.50
2022-10-09T15:14:56.498Z,1.55
2022-10-09T15:17:23.365Z,2.17
2022-10-09T15:19:50.378Z,1.50
2022-10-09T15:22:17.407Z,1.90
2022-10-09T15:24:44.326Z,1.90
2022-10-09T15:27:11.283Z,2.25
2022-10-09T15:29:38.312Z,2.28
2022-10-09T15:32:05.242Z,2.00
2022-10-09T15:34:32.148Z,2.35
2022-10-09T15:36:59.036Z,2.03
2022-10-09T15:39:25.952Z,2.40
2022-10-09T15:41:52.886Z,1.95
2022-10-09T15:44:20.999Z,2.30
2022-10-09T15:46:49.452Z,2.05
2022-10-09T15:49:16.752Z,2.40
2022-10-09T15:51:44.198Z,2.30
2022-10-09T15:54:12.937Z,2.63
2022-10-09T15:56:41.368Z,2.67
2022-10-09T15:59:13.173Z,2.80
2022-10-09T16:01:40.432Z,3.20
2022-10-09T16:04:07.443Z,3.60
2022-10-09T16:06:34.408Z,3.80
2022-10-09T16:09:03.977Z,5.05
2022-10-09T16:11:31.482Z,4.50
2022-10-09T16:13:59.319Z,4.78
2022-10-09T16:16:27.809Z,5.38
2022-10-09T16:18:56.770Z,7.68
2022-10-09T16:21:28.057Z,8.68
2022-10-09T16:23:58.722Z,10.65
2022-10-09T16:26:29.384Z,11.82
2022-10-09T16:28:57.142Z,11.07
2022-10-09T16:31:30.398Z,9.68
2022-10-09T16:33:59.274Z,8.50
2022-10-09T16:36:27.054Z,9.57
2022-10-09T16:38:55.860Z,9.90
2022-10-09T16:41:24.283Z,11.13
2022-10-09T16:43:55.029Z,10.02
2022-10-09T16:46:25.288Z,10.02
2022-10-09T16:48:55.148Z,11.23
2022-10-09T16:51:29.414Z,8.45
2022-10-09T16:54:01.287Z,7.72
2022-10-09T16:56:37.120Z,6.70
2022-10-09T16:59:08.036Z,8.45
2022-10-09T17:01:37.875Z,5.63
2022-10-09T17:04:05.418Z,5.05
2022-10-09T17:06:32.396Z,6.60
2022-10-09T17:09:00.182Z,5.75
2022-10-09T17:11:32.355Z,6.78
2022-10-09T17:14:00.033Z,9.63
2022-10-09T17:16:31.392Z,8.82
2022-10-09T17:18:58.677Z,6.10
2022-10-09T17:21:29.318Z,5.88
2022-10-09T17:24:05.744Z,5.38
2022-10-09T17:26:33.037Z,4.50
2022-10-09T17:29:01.858Z,5.07
2022-10-09T17:31:30.190Z,9.82
2022-10-09T17:34:00.826Z,9.95
2022-10-09T17:36:33.317Z,10.63
2022-10-09T17:39:00.410Z,9.43
2022-10-09T17:41:28.314Z,9.38
2022-10-09T17:43:57.248Z,8.68
2022-10-09T17:46:26.752Z,9.38
2022-10-09T17:48:56.651Z,9.80
2022-10-09T17:51:29.548Z,8.25
2022-10-09T17:54:09.609Z,8.18
2022-10-09T17:56:39.378Z,6.10
2022-10-09T17:59:07.286Z,5.43
2022-10-09T18:01:34.859Z,6.93
2022-10-09T18:04:01.998Z,7.45
2022-10-09T18:06:33.226Z,7.55
2022-10-09T18:09:00.806Z,6.82
2022-10-09T18:11:28.524Z,7.28
2022-10-09T18:13:55.824Z,8.20
2022-10-09T18:16:35.258Z,6.78
2022-10-09T18:19:13.856Z,5.85
2022-10-09T18:21:45.261Z,5.90
2022-10-09T18:24:12.935Z,5.95
2022-10-09T18:26:40.584Z,6.10
2022-10-09T18:29:07.965Z,7.43
2022-10-09T18:31:35.590Z,6.60
2022-10-09T18:34:02.594Z,6.45
2022-10-09T18:36:31.778Z,9.98
2022-10-09T18:39:07.612Z,6.45
2022-10-09T18:41:35.694Z,9.27
2022-10-09T18:44:03.803Z,10.63
2022-10-09T18:46:42.715Z,9.18
2022-10-09T18:49:14.620Z,8.18
2022-10-09T18:51:44.558Z,8.20
2022-10-09T18:54:17.080Z,8.45
2022-10-09T18:56:45.396Z,7.47
2022-10-09T18:59:17.654Z,7.78
2022-10-09T19:01:44.758Z,9.07
2022-10-09T19:04:11.966Z,8.18
2022-10-09T19:06:43.065Z,12.43
2022-10-09T19:09:10.089Z,7.82
2022-10-09T19:11:37.047Z,9.32
2022-10-09T19:14:04.337Z,8.35
2022-10-09T19:16:33.979Z,8.18
2022-10-09T19:19:01.281Z,8.40
2022-10-09T19:21:28.513Z,9.85
2022-10-09T19:23:55.718Z,7.57
2022-10-09T19:26:23.310Z,7.75
2022-10-09T19:28:50.445Z,8.43
2022-10-09T19:31:17.560Z,7.47
2022-10-09T19:33:44.523Z,7.90
2022-10-09T19:36:14.362Z,8.13
2022-10-09T19:38:42.085Z,8.13
2022-10-09T19:41:15.570Z,7.90
2022-10-09T19:43:42.856Z,8.48
2022-10-09T19:46:17.519Z,9.75
2022-10-09T19:48:46.001Z,12.27
2022-10-09T19:51:22.311Z,9.65
2022-10-09T19:53:50.961Z,8.57
2022-10-09T19:56:26.170Z,9.68
2022-10-09T19:58:55.625Z,9.88
2022-10-09T20:01:26.508Z,9.35
2022-10-09T20:04:02.492Z,8.75
2022-10-09T20:06:31.028Z,9.13
2022-10-09T20:08:57.984Z,9.23
2022-10-09T20:11:26.752Z,9.68
2022-10-09T20:13:56.190Z,9.02
2022-10-09T20:16:25.152Z,8.57
2022-10-09T20:18:55.595Z,8.57
2022-10-09T20:21:22.668Z,8.32
2022-10-09T20:23:49.960Z,8.48
2022-10-09T20:26:20.812Z,8.43
2022-10-09T20:28:48.851Z,8.25
2022-10-09T20:31:19.840Z,9.38
2022-10-09T20:33:49.779Z,8.80
2022-10-09T20:36:37.448Z,8.25
2022-10-09T20:39:11.917Z,9.18
2022-10-09T20:41:40.787Z,8.57
2022-10-09T20:44:07.737Z,9.32
2022-10-09T20:46:38.000Z,8.63
2022-10-09T20:49:08.225Z,8.18
2022-10-09T20:51:37.020Z,8.02
2022-10-09T20:54:05.305Z,8.00
2022-10-09T20:56:34.100Z,8.77
2022-10-09T20:59:01.745Z,8.77
2022-10-09T21:01:29.083Z,8.48
2022-10-09T21:03:59.026Z,8.48
2022-10-09T21:06:26.531Z,7.90
2022-10-09T21:08:53.630Z,7.50
2022-10-09T21:11:24.101Z,8.07
2022-10-09T21:13:51.573Z,8.60
2022-10-09T21:16:22.512Z,10.43
2022-10-09T21:19:02.508Z,9.02
2022-10-09T21:21:31.152Z,9.63
2022-10-09T21:24:00.624Z,11.70
2022-10-09T21:26:30.371Z,13.98
2022-10-09T21:28:59.888Z,12.73
2022-10-09T21:31:30.832Z,10.88
2022-10-09T21:34:00.004Z,11.73
2022-10-09T21:36:55.823Z,10.95
2022-10-09T21:39:28.270Z,10.38
2022-10-09T21:41:55.495Z,10.23
2022-10-09T21:44:22.465Z,10.63
2022-10-09T21:46:49.398Z,10.20
2022-10-09T21:49:21.960Z,10.23
2022-10-09T21:51:49.650Z,12.27
2022-10-09T21:54:16.814Z,10.80
2022-10-09T21:56:43.852Z,11.35
2022-10-09T21:59:10.977Z,13.07
2022-10-09T22:01:38.192Z,12.70
2022-10-09T22:04:05.371Z,12.50
2022-10-09T22:06:32.302Z,12.20
2022-10-09T22:08:59.935Z,11.20
2022-10-09T22:11:27.134Z,10.98
2022-10-09T22:13:56.107Z,11.40
2022-10-09T22:16:23.526Z,12.45
2022-10-09T22:18:50.502Z,10.98
2022-10-09T22:21:18.310Z,11.15
2022-10-09T22:23:45.760Z,11.68
2022-10-09T22:26:17.845Z,11.27
2022-10-09T22:28:47.353Z,11.77
2022-10-09T22:31:21.779Z,12.38
2022-10-09T22:34:06.777Z,12.05
2022-10-09T22:36:34.264Z,12.90
2022-10-09T22:39:06.940Z,12.15
2022-10-09T22:41:35.969Z,11.55
2022-10-09T22:44:06.129Z,12.30
2022-10-09T22:46:37.644Z,11.93
2022-10-09T22:49:07.052Z,11.65
2022-10-09T22:51:34.961Z,11.52
2022-10-09T22:54:01.937Z,11.60
2022-10-09T22:56:36.579Z,11.68
2022-10-09T22:59:05.422Z,11.57
2022-10-09T23:01:42.553Z,10.75
2022-10-09T23:04:13.460Z,10.65
2022-10-09T23:06:42.306Z,11.68
2022-10-09T23:09:14.078Z,11.18
2022-10-09T23:11:42.229Z,10.93
2022-10-09T23:14:11.595Z,10.95
2022-10-09T23:16:39.428Z,11.00
2022-10-09T23:19:07.283Z,10.73
2022-10-09T23:21:36.535Z,10.65
2022-10-09T23:24:04.718Z,10.75
2022-10-09T23:26:33.849Z,11.02
2022-10-09T23:29:18.207Z,10.45
2022-10-09T23:31:46.410Z,11.35
2022-10-09T23:34:13.728Z,10.13
2022-10-09T23:36:41.307Z,10.57
2022-10-09T23:39:08.308Z,10.88
2022-10-09T23:41:35.736Z,11.15
2022-10-09T23:44:02.824Z,10.10
2022-10-09T23:46:35.555Z,11.95
2022-10-09T23:49:02.593Z,12.23
2022-10-09T23:51:30.094Z,12.18
2022-10-09T23:53:58.657Z,14.02
2022-10-09T23:56:29.822Z,13.73
2022-10-09T23:58:58.825Z,13.43
